createdAt,value
2017-10-27T00:00:37.348Z,72.76
2017-10-27T00:01:42.437Z,72.62
2017-10-27T00:02:48.262Z,72.57
2017-10-27T00:03:54.796Z,72.51
2017-10-27T00:05:00.564Z,72.51
2017-10-27T00:06:07.120Z,72.59
2017-10-27T00:07:13.705Z,72.64
2017-10-27T00:08:19.479Z,72.83
2017-10-27T00:09:25.255Z,72.71
2017-10-27T00:10:31.796Z,72.76
2017-10-27T00:11:37.585Z,72.71
2017-10-27T00:12:43.361Z,72.85
2017-10-27T00:13:49.117Z,72.83
2017-10-27T00:14:54.893Z,72.82
2017-10-27T00:16:01.424Z,72.77
2017-10-27T00:17:07.224Z,72.87
2017-10-27T00:18:13.164Z,72.94
2017-10-27T00:19:19.015Z,72.82
2017-10-27T00:20:24.876Z,72.81
2017-10-27T00:21:30.501Z,72.93
2017-10-27T00:22:36.382Z,72.97
2017-10-27T00:23:42.217Z,72.93
2017-10-27T00:24:48.032Z,72.81
2017-10-27T00:25:53.933Z,72.87
2017-10-27T00:26:59.768Z,72.92
2017-10-27T00:28:05.650Z,72.76
2017-10-27T00:29:11.410Z,72.77
2017-10-27T00:30:17.169Z,72.76
2017-10-27T00:31:22.940Z,72.76
2017-10-27T00:32:28.709Z,72.68
2017-10-27T00:33:35.259Z,72.72
2017-10-27T00:34:41.772Z,72.54
2017-10-27T00:35:47.542Z,72.42
2017-10-27T00:36:53.312Z,72.34
2017-10-27T00:37:59.076Z,72.27
2017-10-27T00:39:04.104Z,72.20
2017-10-27T00:40:09.872Z,72.13
2017-10-27T00:41:15.944Z,72.03
2017-10-27T00:42:21.717Z,72.15
2017-10-27T00:43:27.476Z,72.29
2017-10-27T00:44:32.916Z,72.59
2017-10-27T00:45:38.681Z,72.32
2017-10-27T00:46:44.101Z,72.15
2017-10-27T00:47:49.868Z,71.81
2017-10-27T00:48:55.627Z,71.80
2017-10-27T00:50:02.211Z,71.72
2017-10-27T00:51:07.980Z,72.11
2017-10-27T00:52:13.761Z,72.33
2017-10-27T00:53:20.769Z,72.43
2017-10-27T00:54:27.022Z,72.39
2017-10-27T00:55:32.162Z,72.46
2017-10-27T00:56:37.276Z,72.60
2017-10-27T00:57:42.674Z,72.72
2017-10-27T00:58:48.508Z,72.92
2017-10-27T00:59:53.348Z,72.95
2017-10-27T01:00:59.917Z,72.93
2017-10-27T01:02:05.875Z,73.08
2017-10-27T01:03:12.118Z,73.19
2017-10-27T01:04:17.976Z,73.44
2017-10-27T01:05:24.134Z,73.72
2017-10-27T01:06:30.037Z,74.06
2017-10-27T01:07:36.570Z,74.43
2017-10-27T01:08:42.341Z,74.50
2017-10-27T01:09:48.879Z,74.75
2017-10-27T01:10:54.645Z,74.84
2017-10-27T01:12:01.221Z,74.81
2017-10-27T01:13:06.995Z,75.00
2017-10-27T01:14:12.784Z,75.49
2017-10-27T01:15:18.537Z,75.71
2017-10-27T01:16:24.391Z,75.66
2017-10-27T01:17:30.182Z,76.00
2017-10-27T01:18:35.953Z,75.81
2017-10-27T01:19:42.141Z,75.61
2017-10-27T01:20:47.933Z,75.76
2017-10-27T01:21:54.524Z,75.86
2017-10-27T01:23:00.386Z,75.99
2017-10-27T01:24:05.824Z,76.28
2017-10-27T01:25:11.241Z,76.21
2017-10-27T01:26:16.320Z,76.11
2017-10-27T01:27:22.000Z,76.25
2017-10-27T01:28:27.804Z,76.23
2017-10-27T01:29:32.974Z,76.33
2017-10-27T01:30:38.398Z,76.30
2017-10-27T01:31:44.000Z,76.19
2017-10-27T01:32:49.777Z,76.13
2017-10-27T01:33:55.992Z,76.28
2017-10-27T01:35:01.404Z,76.17
2017-10-27T01:36:06.468Z,76.16
2017-10-27T01:37:11.544Z,76.23
2017-10-27T01:38:16.971Z,76.15
2017-10-27T01:39:22.098Z,76.24
2017-10-27T01:40:27.513Z,76.61
2017-10-27T01:41:32.605Z,76.64
2017-10-27T01:42:39.141Z,76.55
2017-10-27T01:43:44.563Z,76.48
2017-10-27T01:44:50.027Z,76.52
2017-10-27T01:45:55.432Z,76.71
2017-10-27T01:47:01.193Z,76.90
2017-10-27T01:48:06.274Z,76.91
2017-10-27T01:49:12.448Z,76.97
2017-10-27T01:50:17.707Z,77.03
2017-10-27T01:51:23.481Z,76.97
2017-10-27T01:52:28.912Z,77.11
2017-10-27T01:53:34.329Z,76.79
2017-10-27T01:54:39.809Z,76.55
2017-10-27T01:55:44.906Z,76.30
2017-10-27T01:56:50.317Z,75.97
2017-10-27T01:57:55.394Z,75.95
2017-10-27T01:59:00.587Z,75.87
2017-10-27T02:00:07.116Z,76.06
2017-10-27T02:01:12.220Z,76.05
2017-10-27T02:02:17.985Z,75.95
2017-10-27T02:03:23.756Z,75.81
2017-10-27T02:04:29.183Z,75.49
2017-10-27T02:05:35.720Z,75.30
2017-10-27T02:06:41.500Z,75.14
2017-10-27T02:07:47.347Z,74.77
2017-10-27T02:08:53.181Z,74.75
2017-10-27T02:09:58.653Z,74.56
2017-10-27T02:11:04.074Z,74.43
2017-10-27T02:12:09.922Z,74.30
2017-10-27T02:13:15.682Z,74.28
2017-10-27T02:14:21.452Z,74.17
2017-10-27T02:15:26.508Z,74.08
2017-10-27T02:16:33.020Z,74.13
2017-10-27T02:17:38.115Z,74.19
2017-10-27T02:18:44.293Z,74.10
2017-10-27T02:19:51.120Z,73.88
2017-10-27T02:20:56.172Z,73.58
2017-10-27T02:22:01.241Z,73.53
2017-10-27T02:23:08.181Z,73.47
2017-10-27T02:24:13.240Z,73.45
2017-10-27T02:25:18.653Z,73.43
2017-10-27T02:26:23.717Z,73.67
2017-10-27T02:27:29.562Z,73.80
2017-10-27T02:28:35.325Z,73.96
2017-10-27T02:29:41.077Z,74.03
2017-10-27T02:30:46.502Z,73.96
2017-10-27T02:31:51.553Z,74.07
2017-10-27T02:32:56.616Z,74.08
2017-10-27T02:34:02.389Z,73.93
2017-10-27T02:35:07.453Z,73.84
2017-10-27T02:36:12.513Z,73.72
2017-10-27T02:37:18.356Z,73.62
2017-10-27T02:38:23.409Z,73.71
2017-10-27T02:39:29.256Z,74.26
2017-10-27T02:40:34.657Z,74.31
2017-10-27T02:41:40.837Z,74.19
2017-10-27T02:42:46.247Z,74.28
2017-10-27T02:43:52.772Z,74.24
2017-10-27T02:44:58.553Z,74.45
2017-10-27T02:46:04.868Z,74.62
2017-10-27T02:47:10.609Z,74.86
2017-10-27T02:48:16.363Z,74.86
2017-10-27T02:49:21.765Z,74.97
2017-10-27T02:50:27.546Z,74.83
2017-10-27T02:51:32.944Z,74.80
2017-10-27T02:52:38.389Z,74.85
2017-10-27T02:53:44.136Z,74.92
2017-10-27T02:54:49.880Z,75.18
2017-10-27T02:55:55.304Z,75.33
2017-10-27T02:57:01.056Z,75.42
2017-10-27T02:58:06.797Z,75.72
2017-10-27T02:59:12.345Z,75.67
2017-10-27T03:00:18.139Z,75.71
2017-10-27T03:01:23.908Z,75.86
2017-10-27T03:02:29.656Z,75.92
2017-10-27T03:03:35.413Z,76.13
2017-10-27T03:04:42.073Z,76.45
2017-10-27T03:05:47.816Z,76.61
2017-10-27T03:06:53.605Z,76.34
2017-10-27T03:07:59.384Z,75.88
2017-10-27T03:09:04.198Z,75.85
2017-10-27T03:10:09.948Z,75.76
2017-10-27T03:11:15.686Z,75.98
2017-10-27T03:12:21.473Z,75.78
2017-10-27T03:13:27.996Z,75.92
2017-10-27T03:14:33.756Z,75.71
2017-10-27T03:15:39.524Z,75.86
2017-10-27T03:16:44.930Z,75.83
2017-10-27T03:17:51.467Z,75.06
2017-10-27T03:18:57.230Z,75.17
2017-10-27T03:20:04.484Z,75.11
2017-10-27T03:21:10.008Z,74.96
2017-10-27T03:22:15.753Z,74.94
2017-10-27T03:23:21.531Z,75.01
2017-10-27T03:24:27.268Z,75.10
2017-10-27T03:25:33.785Z,75.03
2017-10-27T03:26:39.532Z,74.95
2017-10-27T03:27:45.343Z,74.74
2017-10-27T03:28:51.116Z,74.65
2017-10-27T03:29:56.878Z,74.47
2017-10-27T03:31:02.633Z,74.27
2017-10-27T03:32:08.386Z,74.27
2017-10-27T03:33:14.896Z,74.20
2017-10-27T03:34:20.677Z,74.13
2017-10-27T03:35:26.443Z,74.14
2017-10-27T03:36:32.961Z,74.13
2017-10-27T03:37:38.755Z,74.10
2017-10-27T03:38:44.508Z,74.18
2017-10-27T03:39:50.283Z,74.33
2017-10-27T03:40:56.031Z,74.46
2017-10-27T03:42:02.546Z,74.57
2017-10-27T03:43:08.288Z,74.54
2017-10-27T03:44:14.041Z,74.58
2017-10-27T03:45:19.825Z,74.69
2017-10-27T03:46:26.336Z,74.59
2017-10-27T03:47:32.084Z,74.65
2017-10-27T03:48:37.860Z,74.69
2017-10-27T03:49:43.605Z,74.50
2017-10-27T03:50:49.379Z,74.70
2017-10-27T03:51:55.190Z,74.37
2017-10-27T03:53:00.972Z,74.34
2017-10-27T03:54:06.714Z,74.31
2017-10-27T03:55:11.775Z,74.37
2017-10-27T03:56:16.865Z,74.41
2017-10-27T03:57:21.682Z,74.30
2017-10-27T03:58:27.167Z,74.13
2017-10-27T03:59:32.030Z,74.23
2017-10-27T04:00:37.879Z,74.49
2017-10-27T04:01:44.431Z,74.64
2017-10-27T04:02:50.957Z,74.42
2017-10-27T04:03:56.716Z,74.33
2017-10-27T04:05:02.470Z,74.30
2017-10-27T04:06:08.636Z,74.00
2017-10-27T04:07:14.550Z,74.10
2017-10-27T04:08:20.301Z,74.52
2017-10-27T04:09:26.893Z,74.17
2017-10-27T04:10:32.641Z,74.08
2017-10-27T04:11:38.677Z,73.95
2017-10-27T04:12:44.724Z,73.67
2017-10-27T04:13:50.500Z,73.52
2017-10-27T04:14:56.093Z,73.56
2017-10-27T04:16:01.849Z,73.87
2017-10-27T04:17:07.401Z,74.07
2017-10-27T04:18:13.178Z,73.98
2017-10-27T04:19:19.009Z,73.96
2017-10-27T04:20:24.778Z,73.88
2017-10-27T04:21:30.167Z,73.89
2017-10-27T04:22:35.911Z,73.63
2017-10-27T04:23:41.688Z,73.64
2017-10-27T04:24:48.204Z,73.51
2017-10-27T04:25:53.948Z,73.37
2017-10-27T04:26:59.696Z,73.52
2017-10-27T04:28:05.102Z,73.37
2017-10-27T04:29:10.880Z,73.33
2017-10-27T04:30:15.951Z,73.25
2017-10-27T04:31:22.473Z,73.23
2017-10-27T04:32:27.880Z,73.34
2017-10-27T04:33:33.701Z,73.52
2017-10-27T04:34:39.483Z,73.49
2017-10-27T04:35:45.223Z,73.48
2017-10-27T04:36:50.972Z,73.46
2017-10-27T04:37:56.728Z,73.38
2017-10-27T04:39:03.574Z,73.45
2017-10-27T04:40:09.693Z,73.53
2017-10-27T04:41:15.457Z,73.61
2017-10-27T04:42:21.204Z,73.75
2017-10-27T04:43:26.962Z,73.85
2017-10-27T04:44:32.722Z,73.73
2017-10-27T04:45:39.257Z,73.76
2017-10-27T04:46:45.013Z,73.73
2017-10-27T04:47:51.609Z,73.77
2017-10-27T04:48:57.353Z,73.60
2017-10-27T04:50:03.126Z,73.75
2017-10-27T04:51:08.902Z,73.87
2017-10-27T04:52:14.647Z,73.81
2017-10-27T04:53:21.164Z,74.01
2017-10-27T04:54:26.912Z,73.69
2017-10-27T04:55:32.669Z,73.71
2017-10-27T04:56:38.564Z,73.53
2017-10-27T04:57:44.309Z,73.40
2017-10-27T04:58:50.056Z,73.39
2017-10-27T04:59:55.800Z,73.53
2017-10-27T05:01:01.564Z,73.43
2017-10-27T05:02:07.364Z,73.52
2017-10-27T05:03:13.120Z,73.51
2017-10-27T05:04:18.873Z,73.20
2017-10-27T05:05:24.679Z,73.25
2017-10-27T05:06:31.192Z,73.29
2017-10-27T05:07:36.963Z,73.36
2017-10-27T05:08:42.720Z,73.21
2017-10-27T05:09:49.605Z,73.43
2017-10-27T05:10:55.455Z,73.52
2017-10-27T05:12:01.192Z,73.43
2017-10-27T05:13:06.969Z,73.22
2017-10-27T05:14:12.717Z,73.32
2017-10-27T05:15:18.459Z,73.17
2017-10-27T05:16:29.717Z,72.83
2017-10-27T05:17:40.860Z,72.95
2017-10-27T05:18:52.125Z,73.05
2017-10-27T05:20:03.301Z,72.91
2017-10-27T05:21:14.497Z,72.75
2017-10-27T05:22:25.639Z,72.67
2017-10-27T05:23:36.836Z,72.66
2017-10-27T05:24:42.612Z,72.68
2017-10-27T05:25:49.132Z,72.55
2017-10-27T05:26:54.877Z,72.47
2017-10-27T05:28:00.625Z,72.41
2017-10-27T05:29:06.423Z,72.67
2017-10-27T05:30:12.189Z,72.69
2017-10-27T05:31:17.939Z,72.80
2017-10-27T05:32:23.697Z,72.89
2017-10-27T05:33:29.453Z,72.56
2017-10-27T05:34:35.231Z,72.48
2017-10-27T05:35:41.760Z,72.56
2017-10-27T05:36:46.913Z,72.40
2017-10-27T05:37:52.689Z,72.44
2017-10-27T05:38:58.430Z,72.50
2017-10-27T05:40:04.167Z,72.27
2017-10-27T05:41:09.971Z,72.11
2017-10-27T05:42:17.087Z,72.20
2017-10-27T05:43:22.845Z,72.36
2017-10-27T05:44:28.589Z,72.39
2017-10-27T05:45:33.653Z,72.21
2017-10-27T05:46:39.502Z,72.36
2017-10-27T05:47:45.249Z,72.05
2017-10-27T05:48:51.073Z,72.37
2017-10-27T05:49:58.102Z,72.33
2017-10-27T05:51:04.238Z,72.34
2017-10-27T05:52:10.763Z,72.47
2017-10-27T05:53:18.889Z,72.34
2017-10-27T05:54:24.765Z,72.14
2017-10-27T05:55:30.684Z,71.77
2017-10-27T05:56:36.434Z,71.76
2017-10-27T05:57:42.212Z,72.14
2017-10-27T05:58:49.464Z,71.92
2017-10-27T05:59:55.218Z,72.00
2017-10-27T06:01:00.971Z,71.82
2017-10-27T06:02:07.504Z,71.96
2017-10-27T06:03:13.357Z,71.81
2017-10-27T06:04:19.109Z,71.84
2017-10-27T06:05:31.324Z,71.90
2017-10-27T06:06:38.255Z,71.98
2017-10-27T06:07:44.000Z,71.81
2017-10-27T06:08:49.786Z,72.20
2017-10-27T06:09:56.295Z,72.26
2017-10-27T06:11:02.052Z,72.90
2017-10-27T06:12:07.801Z,72.72
2017-10-27T06:13:13.579Z,73.37
2017-10-27T06:14:20.129Z,73.41
2017-10-27T06:15:26.659Z,73.23
2017-10-27T06:16:33.167Z,73.38
2017-10-27T06:17:38.969Z,73.18
2017-10-27T06:18:44.713Z,72.80
2017-10-27T06:19:51.302Z,72.51
2017-10-27T06:20:57.057Z,72.61
2017-10-27T06:22:02.808Z,72.72
2017-10-27T06:23:08.649Z,73.06
2017-10-27T06:24:14.394Z,73.09
2017-10-27T06:25:20.176Z,72.92
2017-10-27T06:26:25.934Z,73.27
2017-10-27T06:27:32.452Z,73.77
2017-10-27T06:28:38.225Z,74.10
2017-10-27T06:29:43.960Z,74.19
2017-10-27T06:30:49.757Z,74.55
2017-10-27T06:31:55.504Z,74.84
2017-10-27T06:33:01.248Z,75.08
2017-10-27T06:34:06.998Z,75.20
2017-10-27T06:35:12.756Z,75.51
2017-10-27T06:36:18.529Z,75.42
2017-10-27T06:37:24.793Z,75.53
2017-10-27T06:38:30.549Z,75.92
2017-10-27T06:39:36.311Z,75.89
2017-10-27T06:40:42.073Z,76.09
2017-10-27T06:41:47.853Z,76.53
2017-10-27T06:42:54.373Z,76.62
2017-10-27T06:44:00.129Z,76.82
2017-10-27T06:45:05.884Z,76.86
2017-10-27T06:46:12.392Z,76.66
2017-10-27T06:47:18.168Z,76.73
2017-10-27T06:48:23.946Z,76.94
2017-10-27T06:49:29.700Z,76.87
2017-10-27T06:50:35.453Z,77.03
2017-10-27T06:51:41.240Z,77.19
2017-10-27T06:52:47.797Z,77.00
2017-10-27T06:53:53.532Z,77.12
2017-10-27T06:54:59.310Z,77.03
2017-10-27T06:56:04.451Z,77.10
2017-10-27T06:57:09.512Z,77.01
2017-10-27T06:58:15.288Z,76.90
2017-10-27T06:59:21.804Z,76.85
2017-10-27T07:00:27.211Z,76.79
2017-10-27T07:01:32.965Z,76.86
2017-10-27T07:02:38.709Z,77.23
2017-10-27T07:03:44.526Z,77.29
2017-10-27T07:04:51.036Z,77.02
2017-10-27T07:05:56.788Z,76.96
2017-10-27T07:07:02.521Z,77.06
2017-10-27T07:08:08.274Z,77.11
2017-10-27T07:09:14.050Z,77.10
2017-10-27T07:10:19.470Z,77.03
2017-10-27T07:11:25.497Z,77.00
2017-10-27T07:12:31.255Z,76.70
2017-10-27T07:13:36.988Z,76.63
2017-10-27T07:14:43.532Z,76.77
2017-10-27T07:15:48.956Z,76.60
2017-10-27T07:16:54.701Z,76.44
2017-10-27T07:18:00.451Z,76.11
2017-10-27T07:19:06.204Z,75.79
2017-10-27T07:20:12.758Z,75.04
2017-10-27T07:21:18.507Z,74.70
2017-10-27T07:22:25.045Z,74.32
2017-10-27T07:23:30.461Z,73.93
2017-10-27T07:24:35.869Z,73.47
2017-10-27T07:25:41.304Z,73.00
2017-10-27T07:26:47.049Z,72.57
2017-10-27T07:27:52.879Z,72.36
2017-10-27T07:28:58.625Z,72.44
2017-10-27T07:30:03.952Z,72.20
2017-10-27T07:31:09.041Z,71.93
2017-10-27T07:32:14.312Z,71.98
2017-10-27T07:33:19.722Z,72.03
2017-10-27T07:34:25.549Z,72.26
2017-10-27T07:35:30.619Z,72.44
2017-10-27T07:36:36.049Z,72.53
2017-10-27T07:37:41.806Z,71.79
2017-10-27T07:38:46.906Z,71.51
2017-10-27T07:39:53.069Z,71.18
2017-10-27T07:40:58.834Z,71.47
2017-10-27T07:42:03.916Z,71.72
2017-10-27T07:43:10.085Z,71.63
2017-10-27T07:44:15.828Z,71.69
2017-10-27T07:45:20.897Z,72.07
2017-10-27T07:46:25.961Z,72.36
2017-10-27T07:47:32.501Z,72.49
2017-10-27T07:48:38.248Z,72.41
2017-10-27T07:49:44.482Z,72.45
2017-10-27T07:50:49.892Z,72.26
2017-10-27T07:51:55.301Z,72.08
2017-10-27T07:53:01.081Z,72.12
2017-10-27T07:54:06.476Z,72.20
2017-10-27T07:55:12.371Z,72.39
2017-10-27T07:56:17.886Z,72.36
2017-10-27T07:57:23.308Z,72.65
2017-10-27T07:58:28.729Z,72.65
2017-10-27T07:59:33.789Z,73.00
2017-10-27T08:00:38.913Z,72.54
2017-10-27T08:01:43.985Z,71.90
2017-10-27T08:02:49.045Z,71.22
2017-10-27T08:03:54.480Z,70.29
2017-10-27T08:04:59.896Z,69.05
2017-10-27T08:06:05.642Z,68.12
2017-10-27T08:07:11.054Z,67.12
2017-10-27T08:08:16.460Z,66.46
2017-10-27T08:09:21.561Z,66.17
2017-10-27T08:10:26.966Z,66.06
2017-10-27T08:11:32.375Z,66.17
2017-10-27T08:12:38.202Z,66.71
2017-10-27T08:13:44.376Z,66.77
2017-10-27T08:14:50.147Z,67.19
2017-10-27T08:15:55.574Z,67.20
2017-10-27T08:17:00.628Z,67.24
2017-10-27T08:18:06.455Z,67.14
2017-10-27T08:19:11.879Z,67.65
2017-10-27T08:20:16.956Z,67.50
2017-10-27T08:21:22.780Z,67.73
2017-10-27T08:22:28.189Z,67.71
2017-10-27T08:23:33.620Z,67.71
2017-10-27T08:24:39.025Z,67.85
2017-10-27T08:25:44.104Z,67.75
2017-10-27T08:26:49.271Z,67.76
2017-10-27T08:27:55.441Z,66.89
2017-10-27T08:29:00.861Z,65.96
2017-10-27T08:30:05.935Z,65.26
2017-10-27T08:31:11.361Z,65.10
2017-10-27T08:32:16.432Z,64.97
2017-10-27T08:33:22.601Z,64.97
2017-10-27T08:34:28.016Z,64.93
2017-10-27T08:35:33.874Z,65.08
2017-10-27T08:36:38.962Z,65.70
2017-10-27T08:37:44.725Z,65.59
2017-10-27T08:38:50.561Z,64.65
2017-10-27T08:39:55.623Z,63.63
2017-10-27T08:41:00.681Z,63.12
2017-10-27T08:42:05.540Z,62.96
2017-10-27T08:43:11.119Z,63.26
2017-10-27T08:44:16.876Z,62.89
2017-10-27T08:45:21.936Z,62.52
2017-10-27T08:46:28.106Z,62.93
2017-10-27T08:47:33.549Z,62.70
2017-10-27T08:48:38.953Z,63.14
2017-10-27T08:49:44.820Z,62.85
2017-10-27T08:50:50.225Z,62.08
2017-10-27T08:51:55.637Z,61.82
2017-10-27T08:53:00.468Z,62.04
2017-10-27T08:54:05.530Z,61.84
2017-10-27T08:55:10.936Z,62.18
2017-10-27T08:56:16.769Z,62.70
2017-10-27T08:57:22.946Z,63.23
2017-10-27T08:58:29.417Z,63.26
2017-10-27T08:59:34.472Z,63.18
2017-10-27T09:00:39.612Z,63.43
2017-10-27T09:01:45.025Z,63.74
2017-10-27T09:02:50.780Z,63.98
2017-10-27T09:03:55.868Z,63.82
2017-10-27T09:05:01.697Z,63.36
2017-10-27T09:06:07.521Z,62.62
2017-10-27T09:07:12.588Z,61.70
2017-10-27T09:08:17.989Z,61.03
2017-10-27T09:09:23.843Z,60.86
2017-10-27T09:10:29.670Z,60.75
2017-10-27T09:11:36.587Z,60.75
2017-10-27T09:12:42.056Z,60.84
2017-10-27T09:13:47.462Z,61.43
2017-10-27T09:14:52.545Z,62.12
2017-10-27T09:15:59.063Z,62.05
2017-10-27T09:17:04.129Z,61.35
2017-10-27T09:18:10.298Z,60.91
2017-10-27T09:19:15.357Z,60.43
2017-10-27T09:20:20.787Z,59.61
2017-10-27T09:21:26.541Z,58.75
2017-10-27T09:22:31.956Z,58.50
2017-10-27T09:23:37.367Z,57.74
2017-10-27T09:24:42.792Z,56.96
2017-10-27T09:25:48.972Z,56.00
2017-10-27T09:26:54.742Z,55.31
2017-10-27T09:27:59.798Z,55.01
2017-10-27T09:29:05.632Z,54.89
2017-10-27T09:30:12.188Z,54.38
2017-10-27T09:31:17.650Z,54.15
2017-10-27T09:32:23.648Z,53.61
2017-10-27T09:33:28.704Z,53.36
2017-10-27T09:34:34.536Z,52.84
2017-10-27T09:35:39.937Z,52.98
2017-10-27T09:36:45.032Z,52.44
2017-10-27T09:37:50.141Z,52.21
2017-10-27T09:38:56.317Z,52.51
2017-10-27T09:40:02.089Z,53.13
2017-10-27T09:41:07.145Z,53.75
2017-10-27T09:42:13.109Z,54.01
2017-10-27T09:43:18.937Z,54.69
2017-10-27T09:44:24.365Z,54.29
2017-10-27T09:45:30.920Z,54.56
2017-10-27T09:46:35.989Z,54.41
2017-10-27T09:47:41.760Z,53.64
2017-10-27T09:48:46.817Z,54.17
2017-10-27T09:49:52.713Z,54.03
2017-10-27T09:50:58.116Z,54.04
2017-10-27T09:52:03.948Z,53.26
2017-10-27T09:53:09.369Z,53.12
2017-10-27T09:54:14.427Z,52.81
2017-10-27T09:55:20.249Z,52.65
2017-10-27T09:56:26.215Z,52.35
2017-10-27T09:57:31.441Z,52.07
2017-10-27T09:58:37.290Z,52.40
2017-10-27T09:59:42.729Z,52.16
2017-10-27T10:00:47.885Z,51.69
2017-10-27T10:01:53.286Z,51.40
2017-10-27T10:02:58.337Z,51.37
2017-10-27T10:04:03.786Z,51.55
2017-10-27T10:05:08.853Z,51.93
2017-10-27T10:06:14.667Z,51.74
2017-10-27T10:07:20.150Z,51.55
2017-10-27T10:08:25.897Z,51.52
2017-10-27T10:09:31.028Z,51.18
2017-10-27T10:10:36.326Z,51.12
2017-10-27T10:11:42.157Z,50.85
2017-10-27T10:12:47.217Z,50.87
2017-10-27T10:13:52.273Z,50.67
2017-10-27T10:14:57.430Z,50.49
2017-10-27T10:16:02.834Z,50.15
2017-10-27T10:17:08.241Z,50.20
2017-10-27T10:18:13.301Z,50.54
2017-10-27T10:19:18.724Z,50.63
2017-10-27T10:20:24.153Z,50.84
2017-10-27T10:21:29.557Z,51.31
2017-10-27T10:22:35.737Z,51.61
2017-10-27T10:23:41.148Z,52.46
2017-10-27T10:24:46.226Z,52.62
2017-10-27T10:25:51.552Z,52.30
2017-10-27T10:26:56.612Z,52.43
2017-10-27T10:28:02.794Z,52.74
2017-10-27T10:29:07.856Z,53.27
2017-10-27T10:30:12.914Z,53.38
2017-10-27T10:31:18.761Z,53.24
2017-10-27T10:32:24.578Z,53.58
2017-10-27T10:33:29.984Z,53.86
2017-10-27T10:34:35.630Z,54.21
2017-10-27T10:35:41.033Z,54.52
2017-10-27T10:36:46.499Z,54.49
2017-10-27T10:37:51.367Z,54.59
2017-10-27T10:38:57.543Z,54.58
2017-10-27T10:40:02.967Z,54.62
2017-10-27T10:41:08.377Z,55.01
2017-10-27T10:42:14.853Z,55.34
2017-10-27T10:43:21.070Z,55.63
2017-10-27T10:44:26.486Z,56.21
2017-10-27T10:45:31.557Z,56.89
2017-10-27T10:46:37.382Z,57.50
2017-10-27T10:47:42.808Z,57.22
2017-10-27T10:48:48.213Z,57.30
2017-10-27T10:49:53.272Z,57.61
2017-10-27T10:50:58.673Z,58.14
2017-10-27T10:52:03.737Z,58.08
2017-10-27T10:53:09.600Z,57.87
2017-10-27T10:54:15.024Z,57.80
2017-10-27T10:55:20.855Z,57.81
2017-10-27T10:56:27.039Z,57.72
2017-10-27T10:57:32.449Z,57.46
2017-10-27T10:58:38.648Z,57.09
2017-10-27T10:59:44.057Z,56.56
2017-10-27T11:00:49.149Z,56.47
2017-10-27T11:01:54.205Z,56.42
2017-10-27T11:02:59.265Z,56.50
2017-10-27T11:04:04.765Z,56.28
2017-10-27T11:05:10.174Z,56.23
2017-10-27T11:06:16.377Z,56.24
2017-10-27T11:07:21.860Z,55.97
2017-10-27T11:08:28.039Z,55.81
2017-10-27T11:09:33.502Z,55.77
2017-10-27T11:10:38.913Z,56.05
2017-10-27T11:11:43.987Z,56.54
2017-10-27T11:12:49.117Z,56.58
2017-10-27T11:13:54.520Z,57.10
2017-10-27T11:14:59.964Z,56.65
2017-10-27T11:16:05.439Z,56.63
2017-10-27T11:17:11.268Z,56.72
2017-10-27T11:18:17.654Z,56.47
2017-10-27T11:19:22.721Z,56.96
2017-10-27T11:20:27.574Z,57.18
2017-10-27T11:21:33.400Z,57.33
2017-10-27T11:22:38.485Z,57.37
2017-10-27T11:23:44.264Z,57.16
2017-10-27T11:24:49.336Z,57.22
2017-10-27T11:25:54.462Z,56.79
2017-10-27T11:27:00.218Z,56.70
2017-10-27T11:28:05.644Z,56.47
2017-10-27T11:29:11.053Z,56.63
2017-10-27T11:30:17.227Z,57.09
2017-10-27T11:31:22.332Z,57.42
2017-10-27T11:32:28.884Z,57.45
2017-10-27T11:33:35.098Z,57.63
2017-10-27T11:34:40.990Z,57.53
2017-10-27T11:35:46.914Z,57.02
2017-10-27T11:36:52.857Z,57.06
2017-10-27T11:37:58.054Z,56.75
2017-10-27T11:39:03.125Z,56.43
2017-10-27T11:40:09.650Z,56.57
2017-10-27T11:41:15.355Z,56.50
2017-10-27T11:42:20.498Z,56.40
2017-10-27T11:43:25.908Z,56.40
2017-10-27T11:44:31.678Z,56.56
2017-10-27T11:45:37.450Z,56.78
2017-10-27T11:46:43.203Z,56.37
2017-10-27T11:47:48.978Z,56.83
2017-10-27T11:48:54.905Z,56.62
2017-10-27T11:50:01.508Z,56.40
2017-10-27T11:51:08.129Z,56.45
2017-10-27T11:52:15.075Z,56.63
2017-10-27T11:53:20.860Z,56.77
2017-10-27T11:54:26.677Z,56.87
2017-10-27T11:55:33.220Z,57.02
2017-10-27T11:56:38.983Z,56.96
2017-10-27T11:57:45.525Z,56.84
2017-10-27T11:58:51.313Z,56.72
2017-10-27T11:59:57.110Z,56.61
2017-10-27T12:01:02.952Z,56.26
2017-10-27T12:02:08.461Z,56.24
2017-10-27T12:03:14.229Z,56.27
2017-10-27T12:04:20.197Z,56.22
2017-10-27T12:05:25.617Z,56.30
2017-10-27T12:06:30.714Z,56.59
2017-10-27T12:07:36.974Z,56.66
2017-10-27T12:08:42.122Z,56.65
2017-10-27T12:09:47.559Z,56.74
2017-10-27T12:10:54.126Z,57.24
2017-10-27T12:12:00.201Z,57.06
2017-10-27T12:13:05.614Z,57.14
2017-10-27T12:14:11.440Z,56.83
2017-10-27T12:15:16.905Z,57.15
2017-10-27T12:16:21.958Z,57.24
2017-10-27T12:17:27.537Z,56.95
2017-10-27T12:18:33.796Z,56.56
2017-10-27T12:19:40.577Z,56.21
2017-10-27T12:20:45.736Z,55.88
2017-10-27T12:21:50.851Z,55.71
2017-10-27T12:22:56.300Z,55.55
2017-10-27T12:24:01.388Z,55.75
2017-10-27T12:25:08.033Z,55.50
2017-10-27T12:26:14.603Z,55.36
2017-10-27T12:27:20.641Z,55.21
2017-10-27T12:28:27.218Z,55.23
2017-10-27T12:29:33.395Z,55.15
2017-10-27T12:30:38.528Z,54.86
2017-10-27T12:31:43.821Z,54.61
2017-10-27T12:32:50.017Z,54.67
2017-10-27T12:33:55.142Z,54.64
2017-10-27T12:35:00.571Z,54.71
2017-10-27T12:36:05.832Z,54.83
2017-10-27T12:37:11.262Z,54.90
2017-10-27T12:38:16.666Z,55.19
2017-10-27T12:39:22.089Z,55.50
2017-10-27T12:40:27.519Z,56.22
2017-10-27T12:41:33.313Z,56.12
2017-10-27T12:42:38.796Z,55.93
2017-10-27T12:43:44.965Z,55.96
2017-10-27T12:44:50.378Z,56.13
2017-10-27T12:45:55.594Z,56.09
2017-10-27T12:47:02.112Z,55.92
2017-10-27T12:48:07.206Z,56.06
2017-10-27T12:49:12.662Z,56.63
2017-10-27T12:50:18.452Z,57.58
2017-10-27T12:51:24.646Z,58.29
2017-10-27T12:52:30.408Z,58.98
2017-10-27T12:53:35.845Z,59.49
2017-10-27T12:54:41.600Z,59.71
2017-10-27T12:55:47.344Z,60.08
2017-10-27T12:56:52.773Z,60.09
2017-10-27T12:57:57.837Z,60.42
2017-10-27T12:59:03.644Z,60.76
2017-10-27T13:00:09.485Z,61.17
2017-10-27T13:01:14.831Z,61.60
2017-10-27T13:02:20.664Z,61.39
2017-10-27T13:03:26.129Z,61.70
2017-10-27T13:04:31.328Z,61.58
2017-10-27T13:05:37.104Z,61.57
2017-10-27T13:06:43.405Z,61.91
2017-10-27T13:07:48.623Z,61.91
2017-10-27T13:08:54.740Z,61.62
2017-10-27T13:10:00.767Z,61.35
2017-10-27T13:11:07.351Z,61.42
2017-10-27T13:12:12.403Z,61.46
2017-10-27T13:13:17.998Z,60.91
2017-10-27T13:14:23.832Z,60.80
2017-10-27T13:15:29.807Z,60.98
2017-10-27T13:16:35.182Z,61.38
2017-10-27T13:17:40.263Z,61.08
2017-10-27T13:18:45.326Z,61.05
2017-10-27T13:19:50.391Z,61.18
2017-10-27T13:20:56.592Z,61.23
2017-10-27T13:22:02.400Z,60.86
2017-10-27T13:23:08.153Z,60.71
2017-10-27T13:24:13.581Z,61.01
2017-10-27T13:25:18.919Z,61.02
2017-10-27T13:26:24.424Z,61.26
2017-10-27T13:27:30.645Z,61.24
2017-10-27T13:28:36.506Z,61.10
2017-10-27T13:29:42.003Z,60.71
2017-10-27T13:30:47.490Z,60.66
2017-10-27T13:31:53.970Z,60.74
2017-10-27T13:32:59.231Z,60.40
2017-10-27T13:34:04.322Z,59.98
2017-10-27T13:35:09.759Z,59.60
2017-10-27T13:36:14.842Z,59.61
2017-10-27T13:37:19.972Z,59.58
2017-10-27T13:38:25.058Z,59.69
2017-10-27T13:39:30.194Z,59.66
2017-10-27T13:40:35.254Z,59.28
2017-10-27T13:41:41.022Z,59.57
2017-10-27T13:42:47.241Z,59.97
2017-10-27T13:43:53.834Z,60.20
2017-10-27T13:44:59.256Z,60.36
2017-10-27T13:46:05.100Z,59.62
2017-10-27T13:47:11.374Z,59.13
2017-10-27T13:48:16.474Z,58.80
2017-10-27T13:49:22.303Z,58.56
2017-10-27T13:50:27.729Z,58.51
2017-10-27T13:51:33.133Z,58.66
2017-10-27T13:52:38.541Z,58.48
2017-10-27T13:53:43.661Z,58.26
2017-10-27T13:54:49.837Z,58.15
2017-10-27T13:55:54.989Z,58.27
2017-10-27T13:57:00.064Z,58.52
2017-10-27T13:58:05.905Z,58.50
2017-10-27T13:59:11.849Z,58.43
2017-10-27T14:00:17.726Z,58.92
2017-10-27T14:01:22.789Z,59.34
2017-10-27T14:02:27.844Z,59.77
2017-10-27T14:03:33.678Z,59.76
2017-10-27T14:04:39.810Z,59.88
2017-10-27T14:05:44.889Z,59.75
2017-10-27T14:06:49.965Z,59.74